Terminal Aerodrome Forecast
Issued by NWS

Home | Current Version | Previous Version | Text Only | Print | Product List | Glossary On
Versions: 1 2 3 4 5 6 7 8 9 10 11 12 13 14 15 16 17 18
000
FTUS44 KSJT 251327 AAA
TAFSOA
TAF AMD
KSOA 251327Z 2513/2612 17007KT 5SM HZ BKN015
     FM251600 19008KT P6SM BKN035
     FM252100 19009KT P6SM SCT050 OVC250
     FM260400 16008KT P6SM VCTS BKN050CB=

USA.gov is the U.S. government's official web portal to all federal, state and local government web resources and services.